Terminal Aerodrome Forecast
Issued by NWS Charleston, WV

Current Version | Previous Version | Graphics & Text | Print | Product List | Glossary On
Versions: 1 2 3 4 5 6 7 8 9 10 11 12 13 14 15 16 17 18 19 20 21 22 23 24 25
348
FTUS41 KRLX 300535
TAFBKW
TAF
KBKW 300535Z 3006/0106 15006KT P6SM FEW250
     FM300900 17010KT P6SM -SHRA OVC040
     FM301500 19014G26KT P6SM OVC035
     FM301900 25014G27KT 3SM SHRA OVC025
     FM302100 28012G27KT 2SM SHRA SCT007 OVC015
     FM302300 28010G18KT 6SM -SHRA OVC020=

USA.gov is the U.S. government's official web portal to all federal, state and local government web resources and services.